createdAt,value
2023-03-25T00:00:59.427Z,10.20
2023-03-25T00:04:04.037Z,9.70
2023-03-25T00:07:06.205Z,9.80
2023-03-25T00:10:09.473Z,9.50
2023-03-25T00:13:13.485Z,9.40
2023-03-25T00:16:16.096Z,9.80
2023-03-25T00:19:18.100Z,9.90
2023-03-25T00:22:19.624Z,9.80
2023-03-25T00:25:21.861Z,9.80
2023-03-25T00:28:24.939Z,9.60
2023-03-25T00:31:26.499Z,9.70
2023-03-25T00:34:28.111Z,9.80
2023-03-25T00:37:30.182Z,9.70
2023-03-25T00:40:34.671Z,9.90
2023-03-25T00:43:36.507Z,12.10
2023-03-25T00:46:38.441Z,9.70
2023-03-25T00:49:40.047Z,9.60
2023-03-25T00:52:41.690Z,9.70
2023-03-25T00:55:43.260Z,9.70
2023-03-25T00:58:44.817Z,9.80
2023-03-25T01:01:46.416Z,9.80
2023-03-25T01:04:49.652Z,9.60
2023-03-25T01:07:51.804Z,9.80
2023-03-25T01:10:54.416Z,9.80
2023-03-25T01:13:59.457Z,9.90
2023-03-25T01:17:01.087Z,9.80
2023-03-25T01:20:05.301Z,9.90
2023-03-25T01:23:07.954Z,9.80
2023-03-25T01:26:09.682Z,9.80
2023-03-25T01:29:12.975Z,10.00
2023-03-25T01:32:14.535Z,11.70
2023-03-25T01:35:16.182Z,9.90
2023-03-25T01:38:17.748Z,10.00
2023-03-25T01:41:19.533Z,10.00
2023-03-25T01:44:21.829Z,9.80
2023-03-25T01:47:26.604Z,9.90
2023-03-25T01:50:29.228Z,10.10
2023-03-25T01:53:32.061Z,9.80
2023-03-25T01:56:38.181Z,9.80
2023-03-25T01:59:40.432Z,9.90
2023-03-25T02:02:43.474Z,9.50
2023-03-25T02:06:02.592Z,9.70
2023-03-25T02:09:06.624Z,9.90
2023-03-25T02:12:08.267Z,9.40
2023-03-25T02:15:11.055Z,10.00
2023-03-25T02:18:27.154Z,9.70
2023-03-25T02:21:45.969Z,10.00
2023-03-25T02:25:07.379Z,10.20
2023-03-25T02:28:26.001Z,9.80
2023-03-25T02:31:39.859Z,9.60
2023-03-25T02:35:02.310Z,10.10
2023-03-25T02:38:40.295Z,9.90
2023-03-25T02:41:41.834Z,9.60
2023-03-25T02:44:57.072Z,9.70
2023-03-25T02:48:05.081Z,9.80
2023-03-25T02:51:12.442Z,9.70
2023-03-25T02:54:16.854Z,9.60
2023-03-25T02:57:21.596Z,9.80
2023-03-25T03:00:27.388Z,9.40
2023-03-25T03:03:29.058Z,9.60
2023-03-25T03:06:39.511Z,9.70
2023-03-25T03:10:04.843Z,9.60
2023-03-25T03:13:41.979Z,9.90
2023-03-25T03:17:03.545Z,9.60
2023-03-25T03:20:26.858Z,9.60
2023-03-25T03:23:33.661Z,10.10
2023-03-25T03:26:44.266Z,9.50
2023-03-25T03:29:50.922Z,9.40
2023-03-25T03:33:09.841Z,9.60
2023-03-25T03:36:16.052Z,9.70
2023-03-25T03:39:27.028Z,11.80
2023-03-25T03:42:44.817Z,9.60
2023-03-25T03:45:51.756Z,9.70
2023-03-25T03:48:57.051Z,9.50
2023-03-25T03:52:10.854Z,9.30
2023-03-25T03:55:24.958Z,9.40
2023-03-25T03:58:30.463Z,9.30
2023-03-25T04:01:47.369Z,9.40
2023-03-25T04:04:50.183Z,9.50
2023-03-25T04:08:00.114Z,9.30
2023-03-25T04:11:09.022Z,9.40
2023-03-25T04:14:12.862Z,9.50
2023-03-25T04:17:14.434Z,9.50
2023-03-25T04:20:23.505Z,9.30
2023-03-25T04:23:25.094Z,9.10
2023-03-25T04:26:29.504Z,10.20
2023-03-25T04:29:31.994Z,9.40
2023-03-25T04:32:34.788Z,9.40
2023-03-25T04:35:36.491Z,9.30
2023-03-25T04:38:38.034Z,10.40
2023-03-25T04:41:39.665Z,9.10
2023-03-25T04:44:41.240Z,9.10
2023-03-25T04:47:47.977Z,9.10
2023-03-25T04:50:51.606Z,9.10
2023-03-25T04:53:57.441Z,9.10
2023-03-25T04:56:59.103Z,10.80
2023-03-25T05:00:00.891Z,9.50
2023-03-25T05:03:02.496Z,9.20
2023-03-25T05:06:04.269Z,9.30
2023-03-25T05:09:07.339Z,9.20
2023-03-25T05:12:11.132Z,9.40
2023-03-25T05:15:13.678Z,9.30
2023-03-25T05:18:16.786Z,9.20
2023-03-25T05:21:18.423Z,9.00
2023-03-25T05:24:20.049Z,8.80
2023-03-25T05:27:21.671Z,9.30
2023-03-25T05:30:23.352Z,9.00
2023-03-25T05:33:25.024Z,9.20
2023-03-25T05:36:26.915Z,9.40
2023-03-25T05:39:28.472Z,8.80
2023-03-25T05:42:30.284Z,8.80
2023-03-25T05:45:32.145Z,9.40
2023-03-25T05:48:35.715Z,9.30
2023-03-25T05:51:38.359Z,9.30
2023-03-25T05:54:41.769Z,9.50
2023-03-25T05:57:43.677Z,9.40
2023-03-25T06:00:46.990Z,9.30
2023-03-25T06:03:49.066Z,9.20
2023-03-25T06:06:50.725Z,9.50
2023-03-25T06:09:54.191Z,9.60
2023-03-25T06:12:55.853Z,9.60
2023-03-25T06:15:58.075Z,9.30
2023-03-25T06:19:00.573Z,9.40
2023-03-25T06:22:02.278Z,9.30
2023-03-25T06:25:04.146Z,9.20
2023-03-25T06:28:06.062Z,9.50
2023-03-25T06:31:16.693Z,9.40
2023-03-25T06:34:18.345Z,9.60
2023-03-25T06:37:21.750Z,9.50
2023-03-25T06:40:24.127Z,9.40
2023-03-25T06:43:26.026Z,9.50
2023-03-25T06:46:27.656Z,9.70
2023-03-25T06:49:29.441Z,9.50
2023-03-25T06:52:31.005Z,9.80
2023-03-25T06:55:32.600Z,9.20
2023-03-25T06:58:36.980Z,9.50
2023-03-25T07:01:38.674Z,9.80
2023-03-25T07:04:41.297Z,9.50
2023-03-25T07:07:42.878Z,9.50
2023-03-25T07:10:44.586Z,11.50
2023-03-25T07:13:46.128Z,9.60
2023-03-25T07:16:47.798Z,9.50
2023-03-25T07:19:50.286Z,9.90
2023-03-25T07:22:54.179Z,10.30
2023-03-25T07:25:56.909Z,9.60
2023-03-25T07:28:58.708Z,9.60
2023-03-25T07:32:00.436Z,9.80
2023-03-25T07:35:02.229Z,9.70
2023-03-25T07:38:04.053Z,9.60
2023-03-25T07:41:10.620Z,9.60
2023-03-25T07:44:12.410Z,9.80
2023-03-25T07:47:13.976Z,9.50
2023-03-25T07:50:17.416Z,10.00
2023-03-25T07:53:19.195Z,11.60
2023-03-25T07:56:20.761Z,9.70
2023-03-25T07:59:22.378Z,9.80
2023-03-25T08:02:23.959Z,11.60
2023-03-25T08:05:25.672Z,9.70
2023-03-25T08:08:30.001Z,9.60
2023-03-25T08:11:33.200Z,9.10
2023-03-25T08:14:36.084Z,9.60
2023-03-25T08:17:38.969Z,11.90
2023-03-25T08:20:41.260Z,9.60
2023-03-25T08:23:44.427Z,9.90
2023-03-25T08:26:45.987Z,10.00
2023-03-25T08:29:54.288Z,10.20
2023-03-25T08:32:55.982Z,10.10
2023-03-25T08:35:57.993Z,12.10
2023-03-25T08:38:59.660Z,10.40
2023-03-25T08:42:01.220Z,10.60
2023-03-25T08:45:04.725Z,10.00
2023-03-25T08:48:06.695Z,10.20
2023-03-25T08:51:08.356Z,10.40
2023-03-25T08:54:10.223Z,10.40
2023-03-25T08:57:12.149Z,11.30
2023-03-25T09:00:14.263Z,10.50
2023-03-25T09:03:16.107Z,10.50
2023-03-25T09:06:18.152Z,10.40
2023-03-25T09:09:19.763Z,10.70
2023-03-25T09:12:21.365Z,10.70
2023-03-25T09:15:23.042Z,10.50
2023-03-25T09:18:24.597Z,12.70
2023-03-25T09:21:26.323Z,10.70
2023-03-25T09:24:27.866Z,10.70
2023-03-25T09:27:29.482Z,10.60
2023-03-25T09:30:31.103Z,10.50
2023-03-25T09:33:32.625Z,10.60
2023-03-25T09:36:34.591Z,10.60
2023-03-25T09:39:36.587Z,10.60
2023-03-25T09:43:01.297Z,10.50
2023-03-25T09:46:03.680Z,10.60
2023-03-25T09:49:14.639Z,10.60
2023-03-25T09:52:20.545Z,10.60
2023-03-25T09:55:28.392Z,10.60
2023-03-25T09:58:42.851Z,10.70
2023-03-25T10:01:58.965Z,11.40
2023-03-25T10:05:11.707Z,11.50
2023-03-25T10:08:26.702Z,12.00
2023-03-25T10:11:41.601Z,11.00
2023-03-25T10:15:14.279Z,11.20
2023-03-25T10:18:43.344Z,11.50
2023-03-25T10:21:58.069Z,11.30
2023-03-25T10:25:02.508Z,11.20
2023-03-25T10:28:07.105Z,11.20
2023-03-25T10:31:16.640Z,10.90
2023-03-25T10:34:19.839Z,10.60
2023-03-25T10:37:36.473Z,11.20
2023-03-25T10:40:49.908Z,11.20
2023-03-25T10:43:52.103Z,11.60
2023-03-25T10:47:08.462Z,11.70
2023-03-25T10:50:20.492Z,12.70
2023-03-25T10:53:27.811Z,11.80
2023-03-25T10:56:34.082Z,11.90
2023-03-25T10:59:45.228Z,11.80
2023-03-25T11:02:48.120Z,11.60
2023-03-25T11:05:50.876Z,11.20
2023-03-25T11:09:25.443Z,11.30
2023-03-25T11:12:36.743Z,11.40
2023-03-25T11:15:44.281Z,11.30
2023-03-25T11:18:48.185Z,11.10
2023-03-25T11:22:17.111Z,11.50
2023-03-25T11:25:25.657Z,11.70
2023-03-25T11:28:41.096Z,11.70
2023-03-25T11:31:43.121Z,11.90
2023-03-25T11:34:48.135Z,12.20
2023-03-25T11:37:56.756Z,14.30
2023-03-25T11:40:59.459Z,13.20
2023-03-25T11:44:03.440Z,12.20
2023-03-25T11:47:08.287Z,12.40
2023-03-25T11:50:21.989Z,14.40
2023-03-25T11:53:26.913Z,13.20
2023-03-25T11:56:38.184Z,13.10
2023-03-25T11:59:45.118Z,12.90
2023-03-25T12:02:46.971Z,12.70
2023-03-25T12:06:00.826Z,12.70
2023-03-25T12:09:10.623Z,13.30
2023-03-25T12:12:32.571Z,13.10
2023-03-25T12:15:44.846Z,13.20
2023-03-25T12:19:10.614Z,12.90
2023-03-25T12:22:30.262Z,13.10
2023-03-25T12:25:53.728Z,12.90
2023-03-25T12:29:20.067Z,13.20
2023-03-25T12:32:32.774Z,13.10
2023-03-25T12:36:07.914Z,12.80
2023-03-25T12:39:14.002Z,13.00
2023-03-25T12:42:39.483Z,13.00
2023-03-25T12:45:53.031Z,12.40
2023-03-25T12:49:05.117Z,12.80
2023-03-25T12:52:18.967Z,12.70
2023-03-25T12:55:42.333Z,13.10
2023-03-25T12:59:05.517Z,13.20
2023-03-25T13:02:16.208Z,13.30
2023-03-25T13:05:18.641Z,12.90
2023-03-25T13:08:32.153Z,12.80
2023-03-25T13:11:49.969Z,12.90
2023-03-25T13:15:01.983Z,11.80
2023-03-25T13:18:26.169Z,12.80
2023-03-25T13:21:33.239Z,13.10
2023-03-25T13:24:43.048Z,12.40
2023-03-25T13:27:46.663Z,12.90
2023-03-25T13:30:50.470Z,12.50
2023-03-25T13:34:19.246Z,12.40
2023-03-25T13:37:34.431Z,12.40
2023-03-25T13:40:55.139Z,12.80
2023-03-25T13:44:02.735Z,12.50
2023-03-25T13:47:32.692Z,12.50
2023-03-25T13:50:35.865Z,12.40
2023-03-25T13:53:46.447Z,12.30
2023-03-25T13:56:53.779Z,12.30
2023-03-25T14:00:20.008Z,12.10
2023-03-25T14:03:47.870Z,11.90
2023-03-25T14:06:49.804Z,11.70
2023-03-25T14:10:14.050Z,11.70
2023-03-25T14:13:26.547Z,11.50
2023-03-25T14:16:34.783Z,11.30
2023-03-25T14:19:38.732Z,11.50
2023-03-25T14:22:43.792Z,11.10
2023-03-25T14:25:58.273Z,11.10
2023-03-25T14:29:08.984Z,10.70
2023-03-25T14:32:16.615Z,10.50
2023-03-25T14:35:33.782Z,10.70
2023-03-25T14:38:58.387Z,9.50
2023-03-25T14:42:06.927Z,9.80
2023-03-25T14:45:50.423Z,9.80
2023-03-25T14:49:04.298Z,9.80
2023-03-25T14:52:15.565Z,10.10
2023-03-25T14:55:29.717Z,11.40
2023-03-25T14:58:31.836Z,10.10
2023-03-25T15:01:36.663Z,10.10
2023-03-25T15:04:39.543Z,9.80
2023-03-25T15:07:54.316Z,10.20
2023-03-25T15:11:09.562Z,10.10
2023-03-25T15:14:19.036Z,9.70
2023-03-25T15:17:44.536Z,9.80
2023-03-25T15:20:46.427Z,9.60
2023-03-25T15:24:08.427Z,10.00
2023-03-25T15:27:38.330Z,9.60
2023-03-25T15:30:54.981Z,9.40
2023-03-25T15:34:24.194Z,9.70
2023-03-25T15:37:58.915Z,9.90
2023-03-25T15:41:10.386Z,9.10
2023-03-25T15:44:41.653Z,9.90
2023-03-25T15:48:03.546Z,10.70
2023-03-25T15:51:14.985Z,12.00
2023-03-25T15:54:29.418Z,10.70
2023-03-25T15:57:44.153Z,10.60
2023-03-25T16:00:48.868Z,10.30
2023-03-25T16:03:58.341Z,11.20
2023-03-25T16:07:03.622Z,10.50
2023-03-25T16:10:16.681Z,10.10
2023-03-25T16:13:24.226Z,10.40
2023-03-25T16:16:26.506Z,10.60
2023-03-25T16:19:34.336Z,10.40
2023-03-25T16:22:37.605Z,10.80
2023-03-25T16:25:41.755Z,10.50
2023-03-25T16:28:43.448Z,10.70
2023-03-25T16:31:59.780Z,10.20
2023-03-25T16:35:02.056Z,10.30
2023-03-25T16:38:04.924Z,10.10
2023-03-25T16:41:14.664Z,10.10
2023-03-25T16:44:20.445Z,10.30
2023-03-25T16:47:22.889Z,10.20
2023-03-25T16:50:24.754Z,11.80
2023-03-25T16:53:27.190Z,10.10
2023-03-25T16:56:36.328Z,10.20
2023-03-25T16:59:38.377Z,10.70
2023-03-25T17:02:41.506Z,10.40
2023-03-25T17:06:04.317Z,12.30
2023-03-25T17:09:15.179Z,10.60
2023-03-25T17:12:19.483Z,10.50
2023-03-25T17:15:21.951Z,10.60
2023-03-25T17:18:31.194Z,12.30
2023-03-25T17:21:35.069Z,10.30
2023-03-25T17:24:42.454Z,10.20
2023-03-25T17:27:44.052Z,10.40
2023-03-25T17:30:46.088Z,10.60
2023-03-25T17:33:53.020Z,10.80
2023-03-25T17:37:08.227Z,11.10
2023-03-25T17:40:20.610Z,11.10
2023-03-25T17:43:22.206Z,11.20
2023-03-25T17:46:26.623Z,10.70
2023-03-25T17:49:28.224Z,11.00
2023-03-25T17:52:32.033Z,10.50
2023-03-25T17:55:33.844Z,10.80
2023-03-25T17:58:35.684Z,10.70
2023-03-25T18:01:37.594Z,10.50
2023-03-25T18:04:39.391Z,10.60
2023-03-25T18:07:41.815Z,10.80
2023-03-25T18:10:43.439Z,10.70
2023-03-25T18:13:48.118Z,10.30
2023-03-25T18:16:50.725Z,10.60
2023-03-25T18:19:52.332Z,10.50
2023-03-25T18:22:55.742Z,10.40
2023-03-25T18:25:58.172Z,11.50
2023-03-25T18:29:02.094Z,10.80
2023-03-25T18:32:03.811Z,10.80
2023-03-25T18:35:06.346Z,10.30
2023-03-25T18:38:16.453Z,10.50
2023-03-25T18:41:18.213Z,10.20
2023-03-25T18:44:19.953Z,10.00
2023-03-25T18:47:21.887Z,10.00
2023-03-25T18:50:40.208Z,10.70
2023-03-25T18:53:41.857Z,10.40
2023-03-25T18:56:43.820Z,10.50
2023-03-25T18:59:45.694Z,10.20
2023-03-25T19:02:48.571Z,10.40
2023-03-25T19:05:50.232Z,10.30
2023-03-25T19:08:51.888Z,11.70
2023-03-25T19:11:53.488Z,10.20
2023-03-25T19:14:55.081Z,10.30
2023-03-25T19:18:07.017Z,9.80
2023-03-25T19:21:10.265Z,10.10
2023-03-25T19:24:11.846Z,10.10
2023-03-25T19:27:13.434Z,10.30
2023-03-25T19:30:20.505Z,10.30
2023-03-25T19:33:22.063Z,10.50
2023-03-25T19:36:25.631Z,10.20
2023-03-25T19:39:27.224Z,9.60
2023-03-25T19:42:28.838Z,9.90
2023-03-25T19:45:31.228Z,11.70
2023-03-25T19:48:33.579Z,10.60
2023-03-25T19:51:35.246Z,10.50
2023-03-25T19:54:37.122Z,10.10
2023-03-25T19:57:39.284Z,9.70
2023-03-25T20:00:41.964Z,9.50
2023-03-25T20:03:43.879Z,9.20
2023-03-25T20:06:45.607Z,9.70
2023-03-25T20:09:47.140Z,9.50
2023-03-25T20:12:49.954Z,9.40
2023-03-25T20:15:52.326Z,9.60
2023-03-25T20:18:54.123Z,9.20
2023-03-25T20:21:55.800Z,9.60
2023-03-25T20:24:57.326Z,9.20
2023-03-25T20:27:59.025Z,9.60
2023-03-25T20:31:00.587Z,9.20
2023-03-25T20:34:02.263Z,9.00
2023-03-25T20:37:04.733Z,9.10
2023-03-25T20:40:11.153Z,9.40
2023-03-25T20:43:14.134Z,8.70
2023-03-25T20:46:16.450Z,9.20
2023-03-25T20:49:19.849Z,8.90
2023-03-25T20:52:21.432Z,9.00
2023-03-25T20:55:23.658Z,11.30
2023-03-25T20:58:26.949Z,9.40
2023-03-25T21:01:28.743Z,9.10
2023-03-25T21:04:30.571Z,10.00
2023-03-25T21:07:35.068Z,8.90
2023-03-25T21:10:37.288Z,9.20
2023-03-25T21:13:39.016Z,8.60
2023-03-25T21:16:41.690Z,8.70
2023-03-25T21:19:43.289Z,8.60
2023-03-25T21:22:44.889Z,8.40
2023-03-25T21:25:49.410Z,8.40
2023-03-25T21:28:50.937Z,8.50
2023-03-25T21:31:52.658Z,8.40
2023-03-25T21:34:54.230Z,8.30
2023-03-25T21:37:55.819Z,8.30
2023-03-25T21:40:59.216Z,8.10
2023-03-25T21:44:01.073Z,8.00
2023-03-25T21:47:06.256Z,8.10
2023-03-25T21:50:10.880Z,6.60
2023-03-25T21:53:18.124Z,7.70
2023-03-25T21:56:25.263Z,8.20
2023-03-25T21:59:26.873Z,8.10
2023-03-25T22:02:29.618Z,9.20
2023-03-25T22:05:32.663Z,8.00
2023-03-25T22:08:35.350Z,8.20
2023-03-25T22:11:39.818Z,8.00
2023-03-25T22:14:41.498Z,7.80
2023-03-25T22:17:43.108Z,6.50
2023-03-25T22:20:44.719Z,8.00
2023-03-25T22:23:48.604Z,8.10
2023-03-25T22:26:50.175Z,7.90
2023-03-25T22:29:51.752Z,8.40
2023-03-25T22:32:53.342Z,8.20
2023-03-25T22:36:06.719Z,8.40
2023-03-25T22:39:09.678Z,8.20
2023-03-25T22:42:11.241Z,8.60
2023-03-25T22:45:12.806Z,8.50
2023-03-25T22:48:14.606Z,8.60
2023-03-25T22:51:17.989Z,8.20
2023-03-25T22:54:19.650Z,8.40
2023-03-25T22:57:21.520Z,8.50
2023-03-25T23:00:26.082Z,8.70
2023-03-25T23:03:28.876Z,8.30
2023-03-25T23:06:31.644Z,8.10
2023-03-25T23:09:43.869Z,8.60
2023-03-25T23:12:45.561Z,8.50
2023-03-25T23:15:47.557Z,8.60
2023-03-25T23:18:50.382Z,8.00
2023-03-25T23:21:52.246Z,8.40
2023-03-25T23:24:53.941Z,8.50
2023-03-25T23:27:57.995Z,8.50
2023-03-25T23:30:59.947Z,8.20
2023-03-25T23:34:04.543Z,8.50
2023-03-25T23:37:07.519Z,8.40
2023-03-25T23:40:10.985Z,8.50
2023-03-25T23:43:12.573Z,8.30
2023-03-25T23:46:14.606Z,8.10
2023-03-25T23:49:17.918Z,8.40
2023-03-25T23:52:19.468Z,8.20
2023-03-25T23:55:21.044Z,8.70
2023-03-25T23:58:25.226Z,8.70
